Time;durP1;ratioP1;P1;durP2;ratioP2;P2;SDS_P1;SDS_P2;PMS_P1;PMS_P2;Temp;Humidity;BMP_temperature;BMP_pressure;BME280_temperature;BME280_humidity;BME280_pressure;Samples;Min_cycle;Max_cycle;Signal;HPM_P1;HPM_P2
2024/01/05 00:01:22;;;;;;;14.93;13.93;;;3.50;99.90;;;;;;5035167;28;20232;-50
2024/01/05 00:03:48;;;;;;;14.27;13.53;;;3.50;99.90;;;;;;5055056;28;20235;-54
2024/01/05 00:06:13;;;;;;;15.20;14.10;;;3.40;99.90;;;;;;5028147;28;20291;-48
2024/01/05 00:08:39;;;;;;;14.53;13.63;;;3.50;99.90;;;;;;5053375;28;20184;-53
2024/01/05 00:11:04;;;;;;;15.27;14.23;;;3.50;99.90;;;;;;5026783;28;20682;-50
2024/01/05 00:13:30;;;;;;;14.53;13.73;;;3.50;99.90;;;;;;5048873;28;20181;-51
2024/01/05 00:15:56;;;;;;;15.20;14.30;;;3.50;99.90;;;;;;5057264;28;20781;-52
2024/01/05 00:18:21;;;;;;;14.70;13.80;;;3.50;99.90;;;;;;5036679;28;20888;-49
2024/01/05 00:20:47;;;;;;;16.20;15.00;;;3.50;99.90;;;;;;5049374;28;20192;-54
2024/01/05 00:23:13;;;;;;;15.70;14.60;;;3.50;99.90;;;;;;5057399;28;20553;-49
2024/01/05 00:25:38;;;;;;;15.70;14.70;;;3.50;99.90;;;;;;5059276;28;20181;-53
2024/01/05 00:28:04;;;;;;;15.37;14.27;;;3.50;99.90;;;;;;5063107;28;20173;-54
2024/01/05 00:30:30;;;;;;;16.40;15.30;;;3.50;99.90;;;;;;5060783;28;20307;-50
2024/01/05 00:32:55;;;;;;;16.13;14.93;;;3.50;99.90;;;;;;5032445;28;20435;-51
2024/01/05 00:35:21;;;;;;;16.00;14.90;;;3.50;99.90;;;;;;5062420;28;20200;-55
2024/01/05 00:37:47;;;;;;;16.73;15.47;;;3.50;99.90;;;;;;5056171;28;20178;-52
2024/01/05 00:40:12;;;;;;;16.17;15.07;;;3.40;99.90;;;;;;5054364;28;20196;-53
2024/01/05 00:42:38;;;;;;;15.40;14.47;;;3.40;99.90;;;;;;5053508;28;20486;-54
2024/01/05 00:45:04;;;;;;;15.77;14.80;;;3.40;99.90;;;;;;5062270;28;20211;-50
2024/01/05 00:47:30;;;;;;;15.88;14.85;;;3.40;99.90;;;;;;5058045;28;20181;-51
2024/01/05 00:49:55;;;;;;;16.23;15.13;;;3.50;99.90;;;;;;5060871;28;20200;-52
2024/01/05 00:52:21;;;;;;;16.50;15.40;;;3.40;99.90;;;;;;5063690;28;20192;-51
2024/01/05 00:54:48;;;;;;;16.37;15.27;;;3.50;99.90;;;;;;5046548;28;20178;-53
2024/01/05 00:57:13;;;;;;;16.85;15.45;;;3.40;99.90;;;;;;5044508;28;20193;-46
2024/01/05 00:59:39;;;;;;;15.97;14.77;;;3.40;99.90;;;;;;5059357;28;20201;-55
2024/01/05 01:02:05;;;;;;;15.43;14.43;;;3.40;99.90;;;;;;5063102;28;20364;-53
2024/01/05 01:04:30;;;;;;;16.73;15.43;;;3.30;99.90;;;;;;5047310;28;20186;-53
2024/01/05 01:06:56;;;;;;;16.13;14.93;;;3.30;99.90;;;;;;5043869;28;20224;-53
2024/01/05 01:09:21;;;;;;;16.53;15.23;;;3.30;99.90;;;;;;5048085;28;20185;-52
2024/01/05 01:11:50;;;;;;;16.37;15.07;;;3.30;99.90;;;;;;5050914;28;20193;-52
2024/01/05 01:14:15;;;;;;;17.45;16.05;;;3.20;99.90;;;;;;5044126;28;20185;-50
2024/01/05 01:16:41;;;;;;;16.20;15.10;;;3.10;99.90;;;;;;5044496;28;20212;-51
2024/01/05 01:19:07;;;;;;;16.40;15.30;;;3.10;99.90;;;;;;5043159;28;20738;-47
2024/01/05 01:21:32;;;;;;;16.00;14.90;;;3.10;99.90;;;;;;5043571;28;20181;-46
2024/01/05 01:23:58;;;;;;;16.97;15.67;;;3.20;99.90;;;;;;5025325;28;20287;-51
2024/01/05 01:26:23;;;;;;;14.93;13.93;;;3.20;99.90;;;;;;5043391;28;20976;-55
2024/01/05 01:28:50;;;;;;;16.37;15.17;;;3.20;99.90;;;;;;5050206;28;20185;-54
2024/01/05 01:31:15;;;;;;;15.90;14.80;;;3.20;99.90;;;;;;5061603;28;20204;-52
2024/01/05 01:33:41;;;;;;;16.67;15.57;;;3.30;99.90;;;;;;5043978;28;20272;-53
2024/01/05 01:36:07;;;;;;;15.80;14.80;;;3.30;99.90;;;;;;5050168;28;20244;-47
2024/01/05 01:38:32;;;;;;;16.80;15.60;;;3.30;99.90;;;;;;5051433;28;20188;-53
2024/01/05 01:40:58;;;;;;;15.63;14.63;;;3.20;99.90;;;;;;5028513;28;20198;-52
2024/01/05 01:43:27;;;;;;;15.10;14.20;;;3.20;99.90;;;;;;5058013;28;20295;-53
2024/01/05 01:45:59;;;;;;;15.50;14.60;;;3.20;99.90;;;;;;5054200;28;20637;-48
2024/01/05 01:48:26;;;;;;;15.20;14.20;;;3.10;99.90;;;;;;5059193;28;20184;-52
2024/01/05 01:50:54;;;;;;;16.05;14.95;;;3.10;99.90;;;;;;5053508;28;20188;-53
2024/01/05 01:53:21;;;;;;;16.00;14.77;;;3.10;99.90;;;;;;5052193;28;20188;-52
2024/01/05 01:55:48;;;;;;;16.08;14.88;;;3.10;99.90;;;;;;5046937;28;20195;-37
2024/01/05 01:58:16;;;;;;;16.05;14.80;;;3.10;99.90;;;;;;5059897;28;20218;-55
2024/01/05 02:00:43;;;;;;;15.57;14.57;;;3.10;99.90;;;;;;5057052;28;20204;-55
2024/01/05 02:03:09;;;;;;;15.38;14.38;;;3.10;99.90;;;;;;5058387;28;20209;-51
2024/01/05 02:05:36;;;;;;;15.68;14.65;;;3.10;99.90;;;;;;5048391;28;20181;-53
2024/01/05 02:08:02;;;;;;;16.00;14.80;;;3.20;99.90;;;;;;5052101;28;20186;-49
2024/01/05 02:10:28;;;;;;;15.77;14.27;;;3.20;99.90;;;;;;5061869;28;20655;-53
2024/01/05 02:12:56;;;;;;;15.93;14.83;;;3.20;99.90;;;;;;5061158;28;20327;-55
2024/01/05 02:15:22;;;;;;;15.20;14.20;;;3.20;99.90;;;;;;5056407;28;20184;-54
2024/01/05 02:17:47;;;;;;;15.73;14.63;;;3.20;99.90;;;;;;5061572;28;20177;-53
2024/01/05 02:20:13;;;;;;;14.80;13.80;;;3.20;99.90;;;;;;5052581;28;20229;-54
2024/01/05 02:22:43;;;;;;;15.90;14.80;;;3.20;99.90;;;;;;5047145;28;20219;-50
2024/01/05 02:25:09;;;;;;;14.00;13.20;;;3.20;99.90;;;;;;5024626;28;20189;-53
2024/01/05 02:27:34;;;;;;;14.53;13.53;;;3.20;99.90;;;;;;5056836;28;20185;-53
2024/01/05 02:30:00;;;;;;;15.57;14.40;;;3.30;99.90;;;;;;5047168;28;20597;-53
2024/01/05 02:32:26;;;;;;;14.67;13.70;;;3.30;99.90;;;;;;5051332;28;20238;-53
2024/01/05 02:34:51;;;;;;;14.65;13.75;;;3.30;99.90;;;;;;5051780;28;20223;-54
2024/01/05 02:37:17;;;;;;;15.33;14.23;;;3.30;99.90;;;;;;5057897;28;20264;-47
2024/01/05 02:39:43;;;;;;;16.40;15.00;;;3.30;99.90;;;;;;5053553;28;20186;-49
2024/01/05 02:42:08;;;;;;;15.80;14.67;;;3.30;99.90;;;;;;5060059;28;20184;-39
2024/01/05 02:44:34;;;;;;;14.90;13.90;;;3.30;99.90;;;;;;5039110;28;20244;-37
2024/01/05 02:46:59;;;;;;;15.80;14.50;;;3.30;99.90;;;;;;5060514;28;20195;-37
2024/01/05 02:49:25;;;;;;;15.00;14.00;;;3.20;99.90;;;;;;5056742;28;20181;-37
2024/01/05 02:51:50;;;;;;;14.60;13.60;;;3.20;99.90;;;;;;5053230;28;20235;-39
2024/01/05 02:54:16;;;;;;;16.20;14.90;;;3.20;99.90;;;;;;5047394;28;20181;-37
2024/01/05 02:56:42;;;;;;;15.80;14.70;;;3.20;99.90;;;;;;5047088;28;20557;-37
2024/01/05 02:59:07;;;;;;;14.80;13.83;;;3.10;99.90;;;;;;5058401;28;20254;-38
2024/01/05 03:01:33;;;;;;;15.73;14.63;;;3.10;99.90;;;;;;5059461;28;20197;-37
2024/01/05 03:04:00;;;;;;;15.27;14.00;;;3.20;99.90;;;;;;5057703;28;20212;-38
2024/01/05 03:06:26;;;;;;;15.95;14.75;;;3.10;99.90;;;;;;5060021;28;20199;-38
2024/01/05 03:08:52;;;;;;;15.57;14.48;;;3.10;99.90;;;;;;5054671;28;20217;-37
2024/01/05 03:11:18;;;;;;;14.00;13.10;;;3.10;99.90;;;;;;5049603;28;20256;-37
2024/01/05 03:13:43;;;;;;;14.00;13.00;;;3.10;99.90;;;;;;5055477;28;20300;-37
2024/01/05 03:16:09;;;;;;;15.70;14.50;;;3.00;99.90;;;;;;5044525;28;20269;-37
2024/01/05 03:18:35;;;;;;;14.80;13.80;;;3.10;99.90;;;;;;5058571;28;20991;-37
2024/01/05 03:21:00;;;;;;;15.00;13.90;;;3.00;99.90;;;;;;5051073;28;20523;-39
2024/01/05 03:23:26;;;;;;;15.23;14.10;;;2.90;99.90;;;;;;5049918;28;20216;-37
2024/01/05 03:25:52;;;;;;;15.00;13.93;;;2.90;99.90;;;;;;5057645;28;20184;-37
2024/01/05 03:28:18;;;;;;;15.80;14.52;;;2.80;99.90;;;;;;5056579;28;20186;-37
2024/01/05 03:30:43;;;;;;;13.87;12.87;;;2.80;99.90;;;;;;5045836;28;20189;-38
2024/01/05 03:33:09;;;;;;;13.67;12.77;;;2.70;99.90;;;;;;5045933;28;20196;-37
2024/01/05 03:35:38;;;;;;;13.68;12.77;;;2.70;99.90;;;;;;5057710;28;20187;-37
2024/01/05 03:38:04;;;;;;;14.90;13.80;;;2.70;99.90;;;;;;5048904;28;20185;-36
2024/01/05 03:40:29;;;;;;;14.37;13.27;;;2.70;99.90;;;;;;5045998;28;20642;-37
2024/01/05 03:42:56;;;;;;;13.87;12.97;;;2.70;99.90;;;;;;5054453;28;20207;-37
2024/01/05 03:45:21;;;;;;;14.23;13.10;;;2.60;99.90;;;;;;5030820;28;20611;-37
2024/01/05 03:47:47;;;;;;;15.70;14.30;;;2.60;99.90;;;;;;5057663;28;20188;-37
2024/01/05 03:50:13;;;;;;;15.10;14.10;;;2.60;99.90;;;;;;5045704;28;20184;-37
2024/01/05 03:52:38;;;;;;;14.23;13.27;;;2.60;99.90;;;;;;5047516;28;20675;-37
2024/01/05 03:55:04;;;;;;;14.07;13.00;;;2.60;99.90;;;;;;5058481;28;20181;-37
2024/01/05 03:57:30;;;;;;;14.53;13.53;;;2.50;99.90;;;;;;5059221;28;20188;-37
2024/01/05 03:59:56;;;;;;;13.65;12.75;;;2.50;99.90;;;;;;5059256;28;20260;-37
2024/01/05 04:02:21;;;;;;;14.00;13.00;;;2.50;99.90;;;;;;5049327;28;20304;-37
2024/01/05 04:04:47;;;;;;;13.80;12.90;;;2.50;99.90;;;;;;5052511;28;20199;-37
2024/01/05 04:07:12;;;;;;;14.90;13.87;;;2.40;99.90;;;;;;5056286;28;20514;-37
2024/01/05 04:09:38;;;;;;;15.77;14.60;;;2.40;99.90;;;;;;5057190;28;20214;-37
2024/01/05 04:12:04;;;;;;;15.47;14.27;;;2.40;99.90;;;;;;5059922;28;20691;-37
2024/01/05 04:14:30;;;;;;;15.23;14.10;;;2.40;99.90;;;;;;5056617;28;20266;-38
2024/01/05 04:16:55;;;;;;;14.70;13.70;;;2.30;99.90;;;;;;5051278;28;20429;-37
2024/01/05 04:19:22;;;;;;;15.60;14.50;;;2.30;99.90;;;;;;5057150;28;20220;-37
2024/01/05 04:21:47;;;;;;;15.75;14.30;;;2.30;99.90;;;;;;5047339;28;20184;-37
2024/01/05 04:24:13;;;;;;;15.00;14.00;;;2.30;99.90;;;;;;5055900;28;20205;-38
2024/01/05 04:26:39;;;;;;;15.10;13.87;;;2.30;99.90;;;;;;5049310;28;20817;-37
2024/01/05 04:29:05;;;;;;;14.77;13.67;;;2.30;99.90;;;;;;5054971;28;20434;-37
2024/01/05 04:31:30;;;;;;;14.37;13.30;;;2.30;99.90;;;;;;5056533;28;20182;-38
2024/01/05 04:33:56;;;;;;;14.10;13.10;;;2.30;99.90;;;;;;5044023;28;20529;-36
2024/01/05 04:36:21;;;;;;;13.97;12.97;;;2.30;99.90;;;;;;5053643;28;21128;-39
2024/01/05 04:38:47;;;;;;;15.40;14.30;;;2.30;99.90;;;;;;5057788;28;20185;-46
2024/01/05 04:41:15;;;;;;;13.50;12.60;;;2.30;99.90;;;;;;5058520;28;20184;-48
2024/01/05 04:43:43;;;;;;;14.10;12.90;;;2.20;99.90;;;;;;5046162;28;20572;-46
2024/01/05 04:46:09;;;;;;;14.13;12.98;;;2.20;99.90;;;;;;5059533;28;20180;-47
2024/01/05 04:48:34;;;;;;;14.37;13.40;;;2.20;99.90;;;;;;5048991;28;20254;-46
2024/01/05 04:51:01;;;;;;;13.93;12.93;;;2.30;99.90;;;;;;5057640;28;20182;-46
2024/01/05 04:53:27;;;;;;;13.63;12.63;;;2.30;99.90;;;;;;5044088;28;20435;-53
2024/01/05 04:55:52;;;;;;;14.13;13.13;;;2.20;99.90;;;;;;5053834;28;20260;-51
2024/01/05 04:58:18;;;;;;;14.20;13.00;;;2.20;99.90;;;;;;5062728;28;20266;-53
2024/01/05 05:00:44;;;;;;;13.43;12.53;;;2.30;99.90;;;;;;5062957;28;20197;-51
2024/01/05 05:03:10;;;;;;;15.03;13.83;;;2.30;99.90;;;;;;5056731;28;20465;-49
2024/01/05 05:05:36;;;;;;;14.70;13.53;;;2.30;99.90;;;;;;5058274;28;20175;-50
2024/01/05 05:08:02;;;;;;;13.65;12.60;;;2.30;99.90;;;;;;5053183;28;20438;-37
2024/01/05 05:10:28;;;;;;;13.15;12.15;;;2.30;99.90;;;;;;5059322;28;20188;-36
2024/01/05 05:12:53;;;;;;;13.83;12.73;;;2.30;99.90;;;;;;5052953;28;20181;-36
2024/01/05 05:15:19;;;;;;;13.40;12.37;;;2.30;99.90;;;;;;5061489;28;20682;-36
2024/01/05 05:17:45;;;;;;;14.93;13.80;;;2.30;99.90;;;;;;5055261;28;20577;-37
2024/01/05 05:20:11;;;;;;;13.93;12.73;;;2.30;99.90;;;;;;5050015;28;20235;-38
2024/01/05 05:22:37;;;;;;;12.63;11.82;;;2.40;99.90;;;;;;5046605;28;20951;-36
2024/01/05 05:25:03;;;;;;;14.13;13.13;;;2.40;99.90;;;;;;5058488;28;20180;-36
2024/01/05 05:27:28;;;;;;;14.40;13.30;;;2.50;99.90;;;;;;5052294;28;20272;-35
2024/01/05 05:29:54;;;;;;;13.30;12.27;;;2.50;99.90;;;;;;5047271;28;20204;-36
2024/01/05 05:32:19;;;;;;;13.47;12.37;;;2.50;99.90;;;;;;5050074;28;20286;-37
2024/01/05 05:34:45;;;;;;;14.43;13.27;;;2.50;99.90;;;;;;5027180;28;20261;-39
2024/01/05 05:37:11;;;;;;;14.37;13.17;;;2.50;99.90;;;;;;5052219;28;20221;-49
2024/01/05 05:39:36;;;;;;;14.70;13.30;;;2.50;99.90;;;;;;5055862;28;20190;-48
2024/01/05 05:42:02;;;;;;;15.60;14.20;;;2.50;99.90;;;;;;5058725;28;20207;-51
2024/01/05 05:44:28;;;;;;;14.95;13.73;;;2.50;99.90;;;;;;5055198;28;20227;-54
2024/01/05 05:46:54;;;;;;;14.45;13.25;;;2.60;99.90;;;;;;5061385;28;20266;-47
2024/01/05 05:49:20;;;;;;;16.13;14.63;;;2.50;99.90;;;;;;5060913;28;20191;-52
2024/01/05 05:51:46;;;;;;;15.97;14.67;;;2.50;99.90;;;;;;5054643;28;20440;-51
2024/01/05 05:54:12;;;;;;;14.10;12.80;;;2.50;99.90;;;;;;5057334;28;20551;-49
2024/01/05 05:56:40;;;;;;;16.20;14.90;;;2.50;99.90;;;;;;5060486;28;20430;-50
2024/01/05 05:59:06;;;;;;;15.57;14.27;;;2.60;99.90;;;;;;5057321;28;20243;-53
2024/01/05 06:01:32;;;;;;;15.17;13.87;;;2.50;99.90;;;;;;5051824;28;20638;-52
2024/01/05 06:03:57;;;;;;;16.43;15.00;;;2.50;99.90;;;;;;5059823;28;20367;-46
2024/01/05 06:06:23;;;;;;;15.27;13.97;;;2.60;99.90;;;;;;5059811;28;20663;-45
2024/01/05 06:08:51;;;;;;;16.90;15.40;;;2.60;99.90;;;;;;5051036;28;20830;-54
2024/01/05 06:11:17;;;;;;;16.60;15.20;;;2.70;99.90;;;;;;5059209;28;21142;-52
2024/01/05 06:13:43;;;;;;;16.52;14.95;;;2.70;99.90;;;;;;5051989;28;20181;-47
2024/01/05 06:16:09;;;;;;;15.10;13.90;;;2.80;99.90;;;;;;5058693;28;20188;-52
2024/01/05 06:18:35;;;;;;;15.07;13.70;;;2.80;99.90;;;;;;5053590;28;20466;-52
2024/01/05 06:21:00;;;;;;;16.57;14.17;;;2.90;99.90;;;;;;5053588;28;20276;-52
2024/01/05 06:23:26;;;;;;;14.70;13.30;;;3.00;99.90;;;;;;5043653;28;20515;-51
2024/01/05 06:25:51;;;;;;;15.17;13.50;;;3.00;99.90;;;;;;5059415;28;20178;-49
2024/01/05 06:28:17;;;;;;;13.90;12.60;;;3.00;99.90;;;;;;5056740;28;20506;-54
2024/01/05 06:30:43;;;;;;;15.40;13.33;;;3.10;99.90;;;;;;5059185;28;20188;-51
2024/01/05 06:33:09;;;;;;;16.43;14.97;;;3.20;99.90;;;;;;5046174;28;20180;-36
2024/01/05 06:35:34;;;;;;;15.83;14.43;;;3.30;99.90;;;;;;5031985;28;20442;-36
2024/01/05 06:38:00;;;;;;;14.70;13.30;;;3.30;99.90;;;;;;5056165;28;20193;-36
2024/01/05 06:40:25;;;;;;;14.70;13.43;;;3.40;99.90;;;;;;5050244;28;20260;-37
2024/01/05 06:42:51;;;;;;;14.53;13.13;;;3.40;99.90;;;;;;5058290;28;20700;-37
2024/01/05 06:45:17;;;;;;;23.87;18.60;;;3.50;99.90;;;;;;5051818;28;20208;-36
2024/01/05 06:47:42;;;;;;;16.73;15.30;;;3.50;99.90;;;;;;5057502;28;20182;-36
2024/01/05 06:50:08;;;;;;;15.03;13.63;;;3.60;99.90;;;;;;5026885;28;20378;-36
2024/01/05 06:52:34;;;;;;;16.40;14.87;;;3.70;99.90;;;;;;5041182;28;20252;-36
2024/01/05 06:55:00;;;;;;;17.27;15.50;;;3.70;99.90;;;;;;5046117;28;20292;-38
2024/01/05 06:57:28;;;;;;;16.40;14.90;;;3.80;99.90;;;;;;5055064;28;20422;-53
2024/01/05 06:59:53;;;;;;;16.25;14.82;;;3.90;99.90;;;;;;5048797;28;20969;-51
2024/01/05 07:02:19;;;;;;;17.00;15.30;;;3.90;99.90;;;;;;5059225;28;20181;-51
2024/01/05 07:04:45;;;;;;;17.47;14.23;;;4.00;99.90;;;;;;5051058;28;20189;-53
2024/01/05 07:07:11;;;;;;;15.30;13.90;;;4.00;99.90;;;;;;5054085;28;20185;-53
2024/01/05 07:09:36;;;;;;;18.77;15.73;;;4.00;99.90;;;;;;5058742;28;20676;-51
2024/01/05 07:12:02;;;;;;;14.97;13.57;;;4.10;99.90;;;;;;5058401;28;20880;-51
2024/01/05 07:14:28;;;;;;;15.68;14.27;;;4.20;99.90;;;;;;5056167;28;20191;-54
2024/01/05 07:16:58;;;;;;;16.60;14.90;;;4.20;99.90;;;;;;5048203;28;20272;-51
2024/01/05 07:19:24;;;;;;;16.00;14.52;;;4.20;99.90;;;;;;5053759;28;20228;-51
2024/01/05 07:21:50;;;;;;;17.35;14.80;;;4.30;99.90;;;;;;5049406;28;20201;-36
2024/01/05 07:24:16;;;;;;;16.17;14.53;;;4.30;99.90;;;;;;5055567;28;20205;-37
2024/01/05 07:26:43;;;;;;;16.20;14.90;;;4.40;99.90;;;;;;5052748;28;20212;-38
2024/01/05 07:29:08;;;;;;;15.32;13.93;;;4.50;99.90;;;;;;5051874;28;20192;-36
2024/01/05 07:31:34;;;;;;;20.57;14.90;;;4.50;99.90;;;;;;5051788;28;20178;-36
2024/01/05 07:34:00;;;;;;;15.07;13.77;;;4.50;99.90;;;;;;5051520;28;20205;-38
2024/01/05 07:36:26;;;;;;;16.20;14.70;;;4.60;99.90;;;;;;5053243;28;20432;-36
2024/01/05 07:38:51;;;;;;;16.80;14.40;;;4.60;99.90;;;;;;5049615;28;20944;-52
2024/01/05 07:41:18;;;;;;;15.83;14.23;;;4.70;99.90;;;;;;5056870;28;20239;-54
2024/01/05 07:43:43;;;;;;;17.27;15.77;;;4.80;99.90;;;;;;5059191;28;20205;-50
2024/01/05 07:46:09;;;;;;;16.03;14.60;;;4.80;99.90;;;;;;5046284;28;20188;-46
2024/01/05 07:48:39;;;;;;;15.80;14.30;;;4.90;99.90;;;;;;5059617;28;20434;-54
2024/01/05 07:51:04;;;;;;;16.25;14.77;;;5.00;99.90;;;;;;5052650;28;20601;-52
2024/01/05 07:53:30;;;;;;;16.90;15.50;;;5.00;99.90;;;;;;5058891;28;20305;-46
2024/01/05 07:55:59;;;;;;;15.50;14.20;;;5.10;99.90;;;;;;5045976;28;20500;-51
2024/01/05 07:58:25;;;;;;;15.27;14.02;;;5.10;99.90;;;;;;5049833;28;20613;-49
2024/01/05 08:00:50;;;;;;;15.93;14.63;;;5.20;99.90;;;;;;5050583;28;20183;-47
2024/01/05 08:03:16;;;;;;;16.40;15.10;;;5.20;99.90;;;;;;5058150;28;20661;-54
2024/01/05 08:05:42;;;;;;;15.37;14.03;;;5.30;99.90;;;;;;5046058;28;20185;-54
2024/01/05 08:08:07;;;;;;;15.07;13.60;;;5.40;99.90;;;;;;5044781;28;20224;-55
2024/01/05 08:10:33;;;;;;;17.33;15.77;;;5.50;99.90;;;;;;5043245;28;20235;-49
2024/01/05 08:13:01;;;;;;;16.87;15.27;;;5.60;99.90;;;;;;5058675;28;20215;-49
2024/01/05 08:15:26;;;;;;;17.40;14.88;;;5.70;99.90;;;;;;5054959;28;20542;-51
2024/01/05 08:17:54;;;;;;;16.40;15.20;;;5.80;99.90;;;;;;5058655;28;20354;-50
2024/01/05 08:20:19;;;;;;;17.13;15.52;;;5.90;99.90;;;;;;5053504;28;20220;-39
2024/01/05 08:22:45;;;;;;;20.50;18.90;;;6.00;99.90;;;;;;5051283;28;20216;-50
2024/01/05 08:25:14;;;;;;;17.10;15.70;;;6.10;99.90;;;;;;5055424;28;20659;-50
2024/01/05 08:27:40;;;;;;;17.20;15.70;;;6.20;99.90;;;;;;5052245;28;20181;-48
2024/01/05 08:30:07;;;;;;;16.40;14.90;;;6.20;99.90;;;;;;5050990;28;20443;-49
2024/01/05 08:32:33;;;;;;;15.30;14.00;;;6.20;99.90;;;;;;5053955;28;20902;-50
2024/01/05 08:34:59;;;;;;;15.40;14.30;;;6.30;98.80;;;;;;5039846;28;20196;-54
2024/01/05 08:37:25;;;;;;;16.30;15.00;;;6.30;96.40;;;;;;5053491;28;20193;-50
2024/01/05 08:39:51;;;;;;;15.40;14.20;;;6.20;86.30;;;;;;5059057;28;20710;-50
2024/01/05 08:42:16;;;;;;;15.60;14.50;;;6.20;81.70;;;;;;5054356;28;20181;-45
2024/01/05 08:44:42;;;;;;;15.43;14.10;;;6.20;87.60;;;;;;5049494;28;20238;-44
2024/01/05 08:47:08;;;;;;;14.90;13.67;;;6.30;80.80;;;;;;5055828;28;20255;-50
2024/01/05 08:49:34;;;;;;;14.77;13.77;;;6.30;84.50;;;;;;5062165;28;20415;-53
2024/01/05 08:52:00;;;;;;;16.17;14.77;;;6.30;74.40;;;;;;5057810;28;20182;-55
2024/01/05 08:54:26;;;;;;;15.03;14.03;;;6.30;73.00;;;;;;5061923;28;20445;-51
2024/01/05 08:56:52;;;;;;;15.68;14.48;;;6.30;79.00;;;;;;5052614;28;20862;-47
2024/01/05 08:59:18;;;;;;;15.70;14.40;;;6.30;88.60;;;;;;5058499;28;20646;-54
2024/01/05 09:01:44;;;;;;;13.50;12.60;;;6.40;89.40;;;;;;5052911;28;20193;-54
2024/01/05 09:04:12;;;;;;;15.33;14.20;;;6.40;90.20;;;;;;5061084;28;20209;-51
2024/01/05 09:06:38;;;;;;;14.10;13.20;;;6.50;82.20;;;;;;5043712;28;20174;-51
2024/01/05 09:09:04;;;;;;;15.43;14.30;;;6.50;82.60;;;;;;5059083;28;20207;-50
2024/01/05 09:11:30;;;;;;;14.30;13.30;;;6.50;81.10;;;;;;5045453;28;20416;-52
2024/01/05 09:13:55;;;;;;;14.70;13.50;;;6.50;84.60;;;;;;5058407;28;20197;-49
2024/01/05 09:16:21;;;;;;;14.40;13.10;;;6.60;76.30;;;;;;5055934;28;20608;-47
2024/01/05 09:18:46;;;;;;;14.40;13.40;;;6.60;77.30;;;;;;5058481;28;20229;-55
2024/01/05 09:21:13;;;;;;;15.23;13.93;;;6.70;69.10;;;;;;5058095;28;20562;-47
2024/01/05 09:23:41;;;;;;;14.73;13.80;;;6.70;67.00;;;;;;5058679;28;20208;-48
2024/01/05 09:26:15;;;;;;;15.10;14.07;;;6.80;59.40;;;;;;5058906;28;20510;-53
2024/01/05 09:28:41;;;;;;;14.57;13.47;;;6.80;56.20;;;;;;5059851;28;20871;-47
2024/01/05 09:31:07;;;;;;;14.43;13.40;;;6.80;51.30;;;;;;5051980;28;20427;-50
2024/01/05 09:33:32;;;;;;;14.47;13.07;;;6.90;51.30;;;;;;5047160;28;20439;-49
2024/01/05 09:35:59;;;;;;;13.90;12.83;;;7.00;47.70;;;;;;5060672;28;20866;-54
2024/01/05 09:38:25;;;;;;;14.37;13.37;;;7.10;48.80;;;;;;5060703;28;20204;-52
2024/01/05 09:40:52;;;;;;;13.80;12.80;;;7.10;43.40;;;;;;5054265;28;20969;-54
2024/01/05 09:43:27;;;;;;;12.90;12.20;;;7.20;38.80;;;;;;5048997;28;20231;-55
2024/01/05 09:45:55;;;;;;;14.07;13.17;;;7.30;38.40;;;;;;5055471;28;20422;-48
2024/01/05 09:48:22;;;;;;;14.90;13.80;;;7.30;32.00;;;;;;5049314;28;20419;-53
2024/01/05 09:50:52;;;;;;;15.17;14.07;;;7.40;30.00;;;;;;5056343;28;20415;-53
2024/01/05 09:53:17;;;;;;;13.70;12.70;;;7.50;23.80;;;;;;5044834;28;20404;-56
2024/01/05 09:55:54;;;;;;;13.90;13.00;;;7.50;23.00;;;;;;5056153;28;20501;-51
2024/01/05 09:58:19;;;;;;;14.63;13.33;;;7.60;22.90;;;;;;5044792;28;20443;-47
2024/01/05 10:00:49;;;;;;;13.53;12.40;;;7.90;9.90;;;;;;5047682;28;20438;-54
2024/01/05 10:03:33;;;;;;;13.47;12.40;;;8.10;5.50;;;;;;5051753;28;20209;-54
2024/01/05 10:05:59;;;;;;;13.80;12.80;;;8.80;1.00;;;;;;5059064;28;20772;-46
2024/01/05 10:08:25;;;;;;;13.50;12.60;;;9.60;1.00;;;;;;5053630;28;20439;-54
2024/01/05 10:10:55;;;;;;;13.13;12.23;;;10.30;1.00;;;;;;5057857;28;20234;-53
2024/01/05 10:13:20;;;;;;;12.57;11.77;;;10.80;1.00;;;;;;5058142;28;20258;-54
2024/01/05 10:15:56;;;;;;;13.60;12.70;;;11.10;99.90;;;;;;5060442;28;20419;-50
2024/01/05 10:18:23;;;;;;;13.87;12.80;;;11.40;99.90;;;;;;5059314;28;20184;-56
2024/01/05 10:20:49;;;;;;;13.27;12.33;;;11.60;99.90;;;;;;5056459;28;21221;-53
2024/01/05 10:23:18;;;;;;;13.50;12.60;;;11.50;99.90;;;;;;5039975;28;20942;-51
2024/01/05 10:25:46;;;;;;;12.80;12.00;;;11.70;99.90;;;;;;5060441;28;20873;-52
2024/01/05 10:28:33;;;;;;;12.80;12.00;;;12.00;99.90;;;;;;5047131;28;20420;-53
2024/01/05 10:31:14;;;;;;;13.80;12.90;;;12.30;99.90;;;;;;5058026;28;20952;-56
2024/01/05 10:33:55;;;;;;;13.17;12.30;;;12.60;99.60;;;;;;5047027;28;20510;-51
2024/01/05 10:36:22;;;;;;;13.50;12.60;;;12.30;98.80;;;;;;5060018;28;20774;-55
2024/01/05 10:38:48;;;;;;;13.27;12.33;;;12.40;99.90;;;;;;5049627;28;20502;-56
2024/01/05 10:41:19;;;;;;;14.10;13.17;;;11.90;99.90;;;;;;5060112;28;20932;-51
2024/01/05 10:43:45;;;;;;;14.03;13.23;;;11.60;99.90;;;;;;5048557;28;20985;-52
2024/01/05 10:46:12;;;;;;;12.40;11.70;;;11.60;99.90;;;;;;5056307;28;20415;-54
2024/01/05 10:48:41;;;;;;;11.40;10.70;;;11.10;99.90;;;;;;5058245;28;20514;-54
2024/01/05 10:51:07;;;;;;;12.50;11.70;;;10.80;99.90;;;;;;5058453;28;20417;-39
2024/01/05 10:53:34;;;;;;;12.43;11.63;;;10.60;99.90;;;;;;5043678;28;20493;-37
2024/01/05 10:56:01;;;;;;;12.63;11.83;;;10.30;99.90;;;;;;5057265;28;20488;-40
2024/01/05 10:58:27;;;;;;;12.90;12.20;;;10.20;99.90;;;;;;5059321;28;20427;-37
2024/01/05 11:00:57;;;;;;;12.70;11.70;;;9.90;1.00;;;;;;5053124;28;20468;-41
2024/01/05 11:03:25;;;;;;;12.60;11.90;;;9.70;99.90;;;;;;5051724;28;20202;-39
2024/01/05 11:05:51;;;;;;;12.53;11.83;;;9.40;99.90;;;;;;5057796;28;20415;-36
2024/01/05 11:08:53;;;;;;;13.10;12.30;;;9.40;1.00;;;;;;5044942;28;20404;-38
2024/01/05 11:11:40;;;;;;;13.80;12.80;;;9.00;99.90;;;;;;5059839;28;20193;-38
2024/01/05 11:14:28;;;;;;;13.17;12.27;;;8.90;99.90;;;;;;5052032;28;20435;-37
2024/01/05 11:17:25;;;;;;;13.27;12.47;;;8.70;99.90;;;;;;5041157;28;20925;-37
2024/01/05 11:20:22;;;;;;;12.80;11.90;;;8.50;1.00;;;;;;5054043;28;20505;-38
2024/01/05 11:22:50;;;;;;;13.93;13.00;;;8.40;1.00;;;;;;5053080;28;20517;-36
2024/01/05 11:25:17;;;;;;;12.43;11.60;;;8.40;99.90;;;;;;5051881;28;20512;-37
2024/01/05 11:27:46;;;;;;;13.00;12.10;;;8.50;1.00;;;;;;5059369;28;20423;-37
2024/01/05 11:30:12;;;;;;;13.70;12.90;;;8.60;99.90;;;;;;5045117;28;20418;-37
2024/01/05 11:32:44;;;;;;;13.10;11.77;;;8.60;99.90;;;;;;5029918;28;20432;-37
2024/01/05 11:35:19;;;;;;;13.40;12.60;;;8.70;99.90;;;;;;5046266;28;20920;-54
2024/01/05 11:37:46;;;;;;;12.77;11.90;;;8.60;1.00;;;;;;5058238;28;20415;-49
2024/01/05 11:40:32;;;;;;;13.00;12.20;;;8.60;99.90;;;;;;5047798;28;20423;-55
2024/01/05 11:42:59;;;;;;;13.10;12.20;;;8.80;1.00;;;;;;5059114;28;20459;-55
2024/01/05 11:45:43;;;;;;;13.77;12.87;;;8.90;1.00;;;;;;5049642;28;20454;-51
2024/01/05 11:48:09;;;;;;;13.17;12.37;;;9.00;99.90;;;;;;5058706;28;20425;-52
2024/01/05 11:50:36;;;;;;;13.70;12.80;;;9.10;48.50;;;;;;5051861;28;20411;-49
2024/01/05 11:53:11;;;;;;;14.00;13.10;;;9.10;28.40;;;;;;5059083;28;20357;-44
2024/01/05 11:55:40;;;;;;;13.80;12.73;;;9.20;99.90;;;;;;5053234;28;20423;-51
2024/01/05 11:58:12;;;;;;;13.80;12.80;;;9.20;1.00;;;;;;5058476;28;20784;-54
2024/01/05 12:00:42;;;;;;;13.83;12.67;;;9.30;1.00;;;;;;5057309;28;20906;-50
2024/01/05 12:03:08;;;;;;;14.20;13.40;;;9.40;1.00;;;;;;5058780;28;20463;-56
2024/01/05 12:05:33;;;;;;;14.70;13.70;;;9.70;99.90;;;;;;5056832;28;20423;-49
2024/01/05 12:08:00;;;;;;;14.50;13.50;;;9.90;99.90;;;;;;5058967;28;20358;-54
2024/01/05 12:10:27;;;;;;;15.37;14.47;;;10.00;1.00;;;;;;5057953;28;20213;-54
2024/01/05 12:12:53;;;;;;;14.40;13.47;;;10.00;1.00;;;;;;5037358;28;20440;-51
2024/01/05 12:15:20;;;;;;;14.80;13.77;;;10.00;1.00;;;;;;5042541;28;20523;-53
2024/01/05 12:17:47;;;;;;;14.90;13.83;;;10.00;1.00;;;;;;5059067;28;20519;-53
2024/01/05 12:20:13;;;;;;;14.80;13.80;;;10.30;1.00;;;;;;5048934;28;20783;-37
2024/01/05 12:22:40;;;;;;;15.00;13.90;;;10.50;1.00;;;;;;5058629;28;20427;-37
2024/01/05 12:25:06;;;;;;;14.63;13.63;;;10.60;99.90;;;;;;5044711;28;20438;-37
2024/01/05 12:27:38;;;;;;;14.40;13.30;;;10.60;99.90;;;;;;5058897;28;20508;-37
2024/01/05 12:30:09;;;;;;;13.83;12.83;;;10.70;99.90;;;;;;5049338;28;20193;-36
2024/01/05 12:32:35;;;;;;;14.13;13.13;;;10.70;99.90;;;;;;5040638;28;20503;-41
2024/01/05 12:35:02;;;;;;;14.80;13.70;;;10.90;99.90;;;;;;5053285;28;20877;-36